sensor_id;sensor_type;location;lat;lon;timestamp;temperature;humidity
810;DHT22;387;48.772;9.186;2023-07-13T00:00:24;21.60;62.30
810;DHT22;387;48.772;9.186;2023-07-13T00:02:49;21.60;62.60
810;DHT22;387;48.772;9.186;2023-07-13T00:05:15;21.60;61.90
810;DHT22;387;48.772;9.186;2023-07-13T00:07:41;21.50;62.00
810;DHT22;387;48.772;9.186;2023-07-13T00:10:07;21.50;61.90
810;DHT22;387;48.772;9.186;2023-07-13T00:12:35;21.50;62.20
810;DHT22;387;48.772;9.186;2023-07-13T00:15:05;21.40;61.50
810;DHT22;387;48.772;9.186;2023-07-13T00:17:31;21.40;61.90
810;DHT22;387;48.772;9.186;2023-07-13T00:19:57;21.40;62.00
810;DHT22;387;48.772;9.186;2023-07-13T00:22:24;21.40;61.20
810;DHT22;387;48.772;9.186;2023-07-13T00:24:52;21.30;61.60
810;DHT22;387;48.772;9.186;2023-07-13T00:27:19;21.20;61.70
810;DHT22;387;48.772;9.186;2023-07-13T00:29:44;21.30;61.60
810;DHT22;387;48.772;9.186;2023-07-13T00:32:11;21.30;61.30
810;DHT22;387;48.772;9.186;2023-07-13T00:34:38;21.20;61.70
810;DHT22;387;48.772;9.186;2023-07-13T00:37:04;21.20;61.60
810;DHT22;387;48.772;9.186;2023-07-13T00:39:32;21.10;61.70
810;DHT22;387;48.772;9.186;2023-07-13T00:41:58;21.10;61.90
810;DHT22;387;48.772;9.186;2023-07-13T00:44:24;21.10;61.60
810;DHT22;387;48.772;9.186;2023-07-13T00:46:49;21.00;61.90
810;DHT22;387;48.772;9.186;2023-07-13T00:49:16;21.00;61.70
810;DHT22;387;48.772;9.186;2023-07-13T00:54:29;21.00;61.30
810;DHT22;387;48.772;9.186;2023-07-13T00:56:59;21.00;61.50
810;DHT22;387;48.772;9.186;2023-07-13T00:59:26;20.90;61.60
810;DHT22;387;48.772;9.186;2023-07-13T01:01:52;20.90;61.60
810;DHT22;387;48.772;9.186;2023-07-13T01:04:18;20.90;61.70
810;DHT22;387;48.772;9.186;2023-07-13T01:06:45;20.90;62.00
810;DHT22;387;48.772;9.186;2023-07-13T01:09:13;20.90;61.60
810;DHT22;387;48.772;9.186;2023-07-13T01:11:40;20.90;61.00
810;DHT22;387;48.772;9.186;2023-07-13T01:14:06;20.80;61.00
810;DHT22;387;48.772;9.186;2023-07-13T01:16:34;20.80;61.30
810;DHT22;387;48.772;9.186;2023-07-13T01:19:01;20.80;61.20
810;DHT22;387;48.772;9.186;2023-07-13T01:21:29;20.60;62.00
810;DHT22;387;48.772;9.186;2023-07-13T01:23:57;20.60;62.30
810;DHT22;387;48.772;9.186;2023-07-13T01:26:23;20.60;62.30
810;DHT22;387;48.772;9.186;2023-07-13T01:28:49;20.50;62.60
810;DHT22;387;48.772;9.186;2023-07-13T01:31:15;20.50;63.10
810;DHT22;387;48.772;9.186;2023-07-13T01:33:41;20.40;63.10
810;DHT22;387;48.772;9.186;2023-07-13T01:36:07;20.40;63.10
810;DHT22;387;48.772;9.186;2023-07-13T01:38:34;20.30;63.20
810;DHT22;387;48.772;9.186;2023-07-13T01:41:00;20.20;63.20
810;DHT22;387;48.772;9.186;2023-07-13T01:43:26;20.20;63.70
810;DHT22;387;48.772;9.186;2023-07-13T01:45:51;20.20;63.10
810;DHT22;387;48.772;9.186;2023-07-13T01:48:17;20.20;63.50
810;DHT22;387;48.772;9.186;2023-07-13T01:50:43;20.10;63.70
810;DHT22;387;48.772;9.186;2023-07-13T01:53:09;20.00;64.10
810;DHT22;387;48.772;9.186;2023-07-13T01:55:35;20.00;64.50
810;DHT22;387;48.772;9.186;2023-07-13T01:58:01;20.00;64.20
810;DHT22;387;48.772;9.186;2023-07-13T02:00:27;20.00;64.50
810;DHT22;387;48.772;9.186;2023-07-13T02:02:53;20.00;64.50
810;DHT22;387;48.772;9.186;2023-07-13T02:05:19;20.00;64.70
810;DHT22;387;48.772;9.186;2023-07-13T02:07:45;19.90;64.50
810;DHT22;387;48.772;9.186;2023-07-13T02:10:11;19.90;64.70
810;DHT22;387;48.772;9.186;2023-07-13T02:12:37;19.90;64.20
810;DHT22;387;48.772;9.186;2023-07-13T02:15:04;19.90;63.80
810;DHT22;387;48.772;9.186;2023-07-13T02:17:31;19.90;64.10
810;DHT22;387;48.772;9.186;2023-07-13T02:19:57;19.90;64.10
810;DHT22;387;48.772;9.186;2023-07-13T02:22:23;19.90;64.40
810;DHT22;387;48.772;9.186;2023-07-13T02:24:49;19.90;64.80
810;DHT22;387;48.772;9.186;2023-07-13T02:27:15;19.80;64.80
810;DHT22;387;48.772;9.186;2023-07-13T02:29:41;19.80;64.80
810;DHT22;387;48.772;9.186;2023-07-13T02:32:07;19.80;64.40
810;DHT22;387;48.772;9.186;2023-07-13T02:34:33;19.80;64.80
810;DHT22;387;48.772;9.186;2023-07-13T02:36:59;19.70;65.60
810;DHT22;387;48.772;9.186;2023-07-13T02:39:24;19.70;65.80
810;DHT22;387;48.772;9.186;2023-07-13T02:41:50;19.70;66.00
810;DHT22;387;48.772;9.186;2023-07-13T02:44:16;19.70;65.60
810;DHT22;387;48.772;9.186;2023-07-13T02:46:41;19.60;65.10
810;DHT22;387;48.772;9.186;2023-07-13T02:49:07;19.50;65.70
810;DHT22;387;48.772;9.186;2023-07-13T02:51:32;19.50;65.30
810;DHT22;387;48.772;9.186;2023-07-13T02:54:02;19.40;66.40
810;DHT22;387;48.772;9.186;2023-07-13T02:56:29;19.40;66.70
810;DHT22;387;48.772;9.186;2023-07-13T02:58:55;19.40;66.60
810;DHT22;387;48.772;9.186;2023-07-13T03:01:22;19.40;66.40
810;DHT22;387;48.772;9.186;2023-07-13T03:03:51;19.40;67.30
810;DHT22;387;48.772;9.186;2023-07-13T03:06:17;19.30;67.30
810;DHT22;387;48.772;9.186;2023-07-13T03:08:43;19.30;67.70
810;DHT22;387;48.772;9.186;2023-07-13T03:11:15;19.20;67.50
810;DHT22;387;48.772;9.186;2023-07-13T03:13:41;19.00;67.60
810;DHT22;387;48.772;9.186;2023-07-13T03:16:08;19.00;67.70
810;DHT22;387;48.772;9.186;2023-07-13T03:18:36;19.00;67.90
810;DHT22;387;48.772;9.186;2023-07-13T03:21:02;19.10;67.70
810;DHT22;387;48.772;9.186;2023-07-13T03:23:28;19.10;67.90
810;DHT22;387;48.772;9.186;2023-07-13T03:26:20;19.10;68.20
810;DHT22;387;48.772;9.186;2023-07-13T03:28:46;19.10;68.50
810;DHT22;387;48.772;9.186;2023-07-13T03:31:16;19.00;68.60
810;DHT22;387;48.772;9.186;2023-07-13T03:33:42;18.80;69.40
810;DHT22;387;48.772;9.186;2023-07-13T03:36:17;18.80;69.50
810;DHT22;387;48.772;9.186;2023-07-13T03:38:52;18.70;69.50
810;DHT22;387;48.772;9.186;2023-07-13T03:41:18;18.80;69.40
810;DHT22;387;48.772;9.186;2023-07-13T03:43:44;18.80;69.20
810;DHT22;387;48.772;9.186;2023-07-13T03:46:10;18.80;68.90
810;DHT22;387;48.772;9.186;2023-07-13T03:48:35;18.80;69.10
810;DHT22;387;48.772;9.186;2023-07-13T03:51:02;18.80;68.50
810;DHT22;387;48.772;9.186;2023-07-13T03:53:27;18.90;68.50
810;DHT22;387;48.772;9.186;2023-07-13T03:55:53;19.00;68.50
810;DHT22;387;48.772;9.186;2023-07-13T03:58:34;19.00;68.50
810;DHT22;387;48.772;9.186;2023-07-13T04:01:01;19.10;67.90
810;DHT22;387;48.772;9.186;2023-07-13T04:03:28;19.10;68.30
810;DHT22;387;48.772;9.186;2023-07-13T04:05:55;19.20;68.20
810;DHT22;387;48.772;9.186;2023-07-13T04:08:25;19.20;68.30
810;DHT22;387;48.772;9.186;2023-07-13T04:10:51;19.10;68.30
810;DHT22;387;48.772;9.186;2023-07-13T04:13:17;19.20;68.20
810;DHT22;387;48.772;9.186;2023-07-13T04:15:43;19.20;67.90
810;DHT22;387;48.772;9.186;2023-07-13T04:18:08;19.20;68.20
810;DHT22;387;48.772;9.186;2023-07-13T04:20:34;19.30;67.30
810;DHT22;387;48.772;9.186;2023-07-13T04:23:00;19.30;66.60
810;DHT22;387;48.772;9.186;2023-07-13T04:25:26;19.30;66.30
810;DHT22;387;48.772;9.186;2023-07-13T04:27:53;19.30;67.20
810;DHT22;387;48.772;9.186;2023-07-13T04:30:19;19.30;66.90
810;DHT22;387;48.772;9.186;2023-07-13T04:32:45;19.30;67.00
810;DHT22;387;48.772;9.186;2023-07-13T04:35:10;19.20;67.90
810;DHT22;387;48.772;9.186;2023-07-13T04:37:36;19.20;67.70
810;DHT22;387;48.772;9.186;2023-07-13T04:40:02;19.20;67.70
810;DHT22;387;48.772;9.186;2023-07-13T04:42:29;19.20;66.90
810;DHT22;387;48.772;9.186;2023-07-13T04:44:55;19.20;67.90
810;DHT22;387;48.772;9.186;2023-07-13T04:47:20;19.20;66.70
810;DHT22;387;48.772;9.186;2023-07-13T04:49:46;19.20;67.20
810;DHT22;387;48.772;9.186;2023-07-13T04:52:12;19.20;66.70
810;DHT22;387;48.772;9.186;2023-07-13T04:54:38;19.20;67.20
810;DHT22;387;48.772;9.186;2023-07-13T04:57:04;19.10;66.90
810;DHT22;387;48.772;9.186;2023-07-13T04:59:32;19.10;67.50
810;DHT22;387;48.772;9.186;2023-07-13T05:01:58;19.10;66.30
810;DHT22;387;48.772;9.186;2023-07-13T05:04:23;19.20;66.60
810;DHT22;387;48.772;9.186;2023-07-13T05:06:49;19.20;67.70
810;DHT22;387;48.772;9.186;2023-07-13T05:09:15;19.20;67.50
810;DHT22;387;48.772;9.186;2023-07-13T05:11:40;19.20;68.00
810;DHT22;387;48.772;9.186;2023-07-13T05:14:06;19.10;68.30
810;DHT22;387;48.772;9.186;2023-07-13T05:16:32;19.20;67.60
810;DHT22;387;48.772;9.186;2023-07-13T05:18:57;19.20;68.50
810;DHT22;387;48.772;9.186;2023-07-13T05:21:23;19.20;66.70
810;DHT22;387;48.772;9.186;2023-07-13T05:23:50;19.30;67.70
810;DHT22;387;48.772;9.186;2023-07-13T05:26:16;19.40;67.20
810;DHT22;387;48.772;9.186;2023-07-13T05:28:41;19.40;66.30
810;DHT22;387;48.772;9.186;2023-07-13T05:31:09;19.40;66.40
810;DHT22;387;48.772;9.186;2023-07-13T05:33:35;19.50;66.70
810;DHT22;387;48.772;9.186;2023-07-13T05:36:01;19.40;66.30
810;DHT22;387;48.772;9.186;2023-07-13T05:38:27;19.60;65.40
810;DHT22;387;48.772;9.186;2023-07-13T05:40:55;19.60;64.50
810;DHT22;387;48.772;9.186;2023-07-13T05:43:21;19.80;64.10
810;DHT22;387;48.772;9.186;2023-07-13T05:45:47;19.80;63.70
810;DHT22;387;48.772;9.186;2023-07-13T05:48:13;19.90;63.50
810;DHT22;387;48.772;9.186;2023-07-13T05:50:39;19.90;63.70
810;DHT22;387;48.772;9.186;2023-07-13T05:53:05;20.10;63.40
810;DHT22;387;48.772;9.186;2023-07-13T05:55:31;20.00;62.90
810;DHT22;387;48.772;9.186;2023-07-13T05:57:56;20.10;63.70
810;DHT22;387;48.772;9.186;2023-07-13T06:00:24;20.20;63.50
810;DHT22;387;48.772;9.186;2023-07-13T06:02:50;20.40;62.60
810;DHT22;387;48.772;9.186;2023-07-13T06:05:15;20.40;62.00
810;DHT22;387;48.772;9.186;2023-07-13T06:07:41;20.30;61.50
810;DHT22;387;48.772;9.186;2023-07-13T06:10:07;20.10;61.60
810;DHT22;387;48.772;9.186;2023-07-13T06:12:33;19.90;62.60
810;DHT22;387;48.772;9.186;2023-07-13T06:14:59;19.90;62.90
810;DHT22;387;48.772;9.186;2023-07-13T06:17:24;19.90;63.20
810;DHT22;387;48.772;9.186;2023-07-13T06:19:50;19.80;63.80
810;DHT22;387;48.772;9.186;2023-07-13T06:22:15;19.70;64.50
810;DHT22;387;48.772;9.186;2023-07-13T06:24:41;19.70;64.50
810;DHT22;387;48.772;9.186;2023-07-13T06:27:07;19.80;64.10
810;DHT22;387;48.772;9.186;2023-07-13T06:29:33;19.80;63.70
810;DHT22;387;48.772;9.186;2023-07-13T06:31:58;19.70;63.20
810;DHT22;387;48.772;9.186;2023-07-13T06:34:24;19.70;63.40
810;DHT22;387;48.772;9.186;2023-07-13T06:36:49;19.80;62.80
810;DHT22;387;48.772;9.186;2023-07-13T06:39:15;19.80;63.20
810;DHT22;387;48.772;9.186;2023-07-13T06:41:41;19.90;63.50
810;DHT22;387;48.772;9.186;2023-07-13T06:44:06;20.10;62.50
810;DHT22;387;48.772;9.186;2023-07-13T06:46:33;20.30;61.50
810;DHT22;387;48.772;9.186;2023-07-13T06:48:58;20.50;61.00
810;DHT22;387;48.772;9.186;2023-07-13T06:51:24;20.60;60.00
810;DHT22;387;48.772;9.186;2023-07-13T06:53:51;20.50;60.40
810;DHT22;387;48.772;9.186;2023-07-13T06:56:17;20.60;60.60
810;DHT22;387;48.772;9.186;2023-07-13T06:58:42;20.60;60.10
810;DHT22;387;48.772;9.186;2023-07-13T07:01:09;20.70;60.30
810;DHT22;387;48.772;9.186;2023-07-13T07:03:34;20.80;60.10
810;DHT22;387;48.772;9.186;2023-07-13T07:06:18;20.90;60.30
810;DHT22;387;48.772;9.186;2023-07-13T07:08:44;20.90;59.20
810;DHT22;387;48.772;9.186;2023-07-13T07:11:15;21.00;56.60
810;DHT22;387;48.772;9.186;2023-07-13T07:13:41;21.10;55.60
810;DHT22;387;48.772;9.186;2023-07-13T07:16:07;20.80;55.70
810;DHT22;387;48.772;9.186;2023-07-13T07:18:34;20.90;56.40
810;DHT22;387;48.772;9.186;2023-07-13T07:21:00;21.10;55.70
810;DHT22;387;48.772;9.186;2023-07-13T07:23:25;21.10;55.70
810;DHT22;387;48.772;9.186;2023-07-13T07:25:51;21.10;55.80
810;DHT22;387;48.772;9.186;2023-07-13T07:28:18;20.90;55.70
810;DHT22;387;48.772;9.186;2023-07-13T07:30:45;21.10;55.70
810;DHT22;387;48.772;9.186;2023-07-13T07:33:11;21.30;54.90
810;DHT22;387;48.772;9.186;2023-07-13T07:35:36;21.30;55.30
810;DHT22;387;48.772;9.186;2023-07-13T07:38:02;21.40;54.10
810;DHT22;387;48.772;9.186;2023-07-13T07:40:28;21.50;53.20
810;DHT22;387;48.772;9.186;2023-07-13T07:42:53;21.50;54.60
810;DHT22;387;48.772;9.186;2023-07-13T07:45:20;21.20;55.00
810;DHT22;387;48.772;9.186;2023-07-13T07:47:46;21.20;54.80
810;DHT22;387;48.772;9.186;2023-07-13T07:50:11;21.20;54.50
810;DHT22;387;48.772;9.186;2023-07-13T07:52:37;21.30;54.40
810;DHT22;387;48.772;9.186;2023-07-13T07:55:05;21.40;53.00
810;DHT22;387;48.772;9.186;2023-07-13T07:57:31;21.20;54.10
810;DHT22;387;48.772;9.186;2023-07-13T07:59:56;21.30;54.50
810;DHT22;387;48.772;9.186;2023-07-13T08:02:22;21.50;54.10
810;DHT22;387;48.772;9.186;2023-07-13T08:04:47;21.60;53.60
810;DHT22;387;48.772;9.186;2023-07-13T08:07:13;21.60;52.60
810;DHT22;387;48.772;9.186;2023-07-13T08:09:38;21.80;52.50
810;DHT22;387;48.772;9.186;2023-07-13T08:12:04;21.90;52.40
810;DHT22;387;48.772;9.186;2023-07-13T08:14:30;22.10;51.60
810;DHT22;387;48.772;9.186;2023-07-13T08:16:56;22.00;51.30
810;DHT22;387;48.772;9.186;2023-07-13T08:19:21;21.90;51.70
810;DHT22;387;48.772;9.186;2023-07-13T08:21:47;21.90;51.70
810;DHT22;387;48.772;9.186;2023-07-13T08:24:14;21.80;51.40
810;DHT22;387;48.772;9.186;2023-07-13T08:26:40;21.90;50.90
810;DHT22;387;48.772;9.186;2023-07-13T08:29:05;21.80;51.70
810;DHT22;387;48.772;9.186;2023-07-13T08:31:31;21.70;52.20
810;DHT22;387;48.772;9.186;2023-07-13T08:33:57;21.60;52.10
810;DHT22;387;48.772;9.186;2023-07-13T08:36:22;21.50;52.60
810;DHT22;387;48.772;9.186;2023-07-13T08:38:48;21.50;52.50
810;DHT22;387;48.772;9.186;2023-07-13T08:41:16;21.70;52.40
810;DHT22;387;48.772;9.186;2023-07-13T08:43:45;21.90;52.10
810;DHT22;387;48.772;9.186;2023-07-13T08:46:33;21.90;52.50
810;DHT22;387;48.772;9.186;2023-07-13T08:49:11;22.10;52.10
810;DHT22;387;48.772;9.186;2023-07-13T08:51:47;22.20;51.80
810;DHT22;387;48.772;9.186;2023-07-13T08:56:45;22.40;52.40
810;DHT22;387;48.772;9.186;2023-07-13T08:59:15;22.60;52.50
810;DHT22;387;48.772;9.186;2023-07-13T09:04:45;22.40;52.10
810;DHT22;387;48.772;9.186;2023-07-13T09:07:21;22.40;52.40
810;DHT22;387;48.772;9.186;2023-07-13T09:10:16;22.30;53.00
810;DHT22;387;48.772;9.186;2023-07-13T09:13:07;22.30;53.00
810;DHT22;387;48.772;9.186;2023-07-13T09:15:44;22.20;52.90
810;DHT22;387;48.772;9.186;2023-07-13T09:20:44;22.50;52.40
810;DHT22;387;48.772;9.186;2023-07-13T09:23:15;22.40;52.40
810;DHT22;387;48.772;9.186;2023-07-13T09:25:47;22.60;52.00
810;DHT22;387;48.772;9.186;2023-07-13T09:28:44;22.90;52.00
810;DHT22;387;48.772;9.186;2023-07-13T09:31:23;23.30;50.20
810;DHT22;387;48.772;9.186;2023-07-13T09:33:49;23.20;50.30
810;DHT22;387;48.772;9.186;2023-07-13T09:36:20;23.20;50.60
810;DHT22;387;48.772;9.186;2023-07-13T09:38:48;23.20;50.20
810;DHT22;387;48.772;9.186;2023-07-13T09:44:15;22.80;51.20
810;DHT22;387;48.772;9.186;2023-07-13T09:46:52;22.70;50.50
810;DHT22;387;48.772;9.186;2023-07-13T09:49:22;22.60;51.20
810;DHT22;387;48.772;9.186;2023-07-13T09:52:01;22.90;49.80
810;DHT22;387;48.772;9.186;2023-07-13T09:54:29;22.70;50.30
810;DHT22;387;48.772;9.186;2023-07-13T09:56:59;22.70;50.30
810;DHT22;387;48.772;9.186;2023-07-13T09:59:29;22.90;50.20
810;DHT22;387;48.772;9.186;2023-07-13T10:01:55;23.20;49.40
810;DHT22;387;48.772;9.186;2023-07-13T10:04:33;23.40;48.20
810;DHT22;387;48.772;9.186;2023-07-13T10:07:07;23.60;48.50
810;DHT22;387;48.772;9.186;2023-07-13T10:09:33;23.60;48.50
810;DHT22;387;48.772;9.186;2023-07-13T10:11:58;23.70;48.60
810;DHT22;387;48.772;9.186;2023-07-13T10:14:25;23.80;47.90
810;DHT22;387;48.772;9.186;2023-07-13T10:16:58;23.90;48.60
810;DHT22;387;48.772;9.186;2023-07-13T10:19:31;24.40;47.80
810;DHT22;387;48.772;9.186;2023-07-13T10:22:09;24.40;47.30
810;DHT22;387;48.772;9.186;2023-07-13T10:24:39;24.50;46.90
810;DHT22;387;48.772;9.186;2023-07-13T10:27:18;24.40;46.90
810;DHT22;387;48.772;9.186;2023-07-13T10:30:01;24.80;45.50
810;DHT22;387;48.772;9.186;2023-07-13T10:32:27;24.50;46.10
810;DHT22;387;48.772;9.186;2023-07-13T10:34:53;24.50;46.60
810;DHT22;387;48.772;9.186;2023-07-13T10:37:30;24.40;46.10
810;DHT22;387;48.772;9.186;2023-07-13T10:39:59;24.60;46.20
810;DHT22;387;48.772;9.186;2023-07-13T10:42:38;25.00;45.10
810;DHT22;387;48.772;9.186;2023-07-13T10:45:14;25.40;44.60
810;DHT22;387;48.772;9.186;2023-07-13T10:47:40;25.80;43.40
810;DHT22;387;48.772;9.186;2023-07-13T10:50:11;25.50;43.80
810;DHT22;387;48.772;9.186;2023-07-13T10:52:41;24.90;44.30
810;DHT22;387;48.772;9.186;2023-07-13T11:04:15;25.60;43.40
810;DHT22;387;48.772;9.186;2023-07-13T11:06:32;25.60;42.40
810;DHT22;387;48.772;9.186;2023-07-13T11:09:35;24.80;44.50
810;DHT22;387;48.772;9.186;2023-07-13T11:15:03;25.40;43.90
810;DHT22;387;48.772;9.186;2023-07-13T11:17:50;25.90;41.90
810;DHT22;387;48.772;9.186;2023-07-13T11:22:48;25.70;42.80
810;DHT22;387;48.772;9.186;2023-07-13T11:27:52;25.20;44.50
810;DHT22;387;48.772;9.186;2023-07-13T11:35:47;24.40;45.80
810;DHT22;387;48.772;9.186;2023-07-13T11:38:40;24.70;46.20
810;DHT22;387;48.772;9.186;2023-07-13T11:41:14;25.50;44.50
810;DHT22;387;48.772;9.186;2023-07-13T11:43:40;25.60;43.50
810;DHT22;387;48.772;9.186;2023-07-13T11:46:19;25.60;43.90
810;DHT22;387;48.772;9.186;2023-07-13T11:48:46;26.20;42.80
810;DHT22;387;48.772;9.186;2023-07-13T11:51:20;25.70;42.60
810;DHT22;387;48.772;9.186;2023-07-13T11:53:49;25.40;43.80
810;DHT22;387;48.772;9.186;2023-07-13T11:56:15;25.10;44.30
810;DHT22;387;48.772;9.186;2023-07-13T11:58:41;25.00;44.50
810;DHT22;387;48.772;9.186;2023-07-13T12:01:25;24.70;45.00
810;DHT22;387;48.772;9.186;2023-07-13T12:03:52;25.20;44.20
810;DHT22;387;48.772;9.186;2023-07-13T12:06:31;25.40;43.80
810;DHT22;387;48.772;9.186;2023-07-13T12:08:58;25.60;43.90
810;DHT22;387;48.772;9.186;2023-07-13T12:11:25;26.00;42.60
810;DHT22;387;48.772;9.186;2023-07-13T12:13:51;26.10;42.20
810;DHT22;387;48.772;9.186;2023-07-13T12:16:29;25.80;42.20
810;DHT22;387;48.772;9.186;2023-07-13T12:18:56;25.30;43.40
810;DHT22;387;48.772;9.186;2023-07-13T12:21:38;25.10;43.00
810;DHT22;387;48.772;9.186;2023-07-13T12:24:05;25.60;41.90
810;DHT22;387;48.772;9.186;2023-07-13T12:26:39;26.00;41.90
810;DHT22;387;48.772;9.186;2023-07-13T12:29:06;26.60;40.60
810;DHT22;387;48.772;9.186;2023-07-13T12:31:37;26.90;40.20
810;DHT22;387;48.772;9.186;2023-07-13T12:34:11;26.60;40.20
810;DHT22;387;48.772;9.186;2023-07-13T12:36:45;26.10;41.00
810;DHT22;387;48.772;9.186;2023-07-13T12:39:17;25.80;41.60
810;DHT22;387;48.772;9.186;2023-07-13T12:41:47;25.50;41.80
810;DHT22;387;48.772;9.186;2023-07-13T12:44:16;25.10;42.70
810;DHT22;387;48.772;9.186;2023-07-13T12:46:59;25.20;42.80
810;DHT22;387;48.772;9.186;2023-07-13T12:49:29;25.20;42.20
810;DHT22;387;48.772;9.186;2023-07-13T12:52:00;25.90;42.20
810;DHT22;387;48.772;9.186;2023-07-13T12:54:27;26.00;41.00
810;DHT22;387;48.772;9.186;2023-07-13T12:56:53;26.50;40.60
810;DHT22;387;48.772;9.186;2023-07-13T12:59:21;27.60;38.70
810;DHT22;387;48.772;9.186;2023-07-13T13:01:49;26.70;39.10
810;DHT22;387;48.772;9.186;2023-07-13T13:04:15;26.40;39.60
810;DHT22;387;48.772;9.186;2023-07-13T13:06:41;26.40;39.90
810;DHT22;387;48.772;9.186;2023-07-13T13:09:13;26.50;40.40
810;DHT22;387;48.772;9.186;2023-07-13T13:11:39;26.80;39.90
810;DHT22;387;48.772;9.186;2023-07-13T13:14:05;27.60;37.90
810;DHT22;387;48.772;9.186;2023-07-13T13:16:34;28.20;36.30
810;DHT22;387;48.772;9.186;2023-07-13T13:19:16;27.40;37.20
810;DHT22;387;48.772;9.186;2023-07-13T13:21:45;27.00;37.90
810;DHT22;387;48.772;9.186;2023-07-13T13:24:16;26.60;38.40
810;DHT22;387;48.772;9.186;2023-07-13T13:26:43;26.80;38.80
810;DHT22;387;48.772;9.186;2023-07-13T13:29:18;27.60;37.20
810;DHT22;387;48.772;9.186;2023-07-13T13:31:45;27.40;37.20
810;DHT22;387;48.772;9.186;2023-07-13T13:34:12;28.30;36.30
810;DHT22;387;48.772;9.186;2023-07-13T13:36:40;27.70;36.70
810;DHT22;387;48.772;9.186;2023-07-13T13:39:20;28.40;35.70
810;DHT22;387;48.772;9.186;2023-07-13T13:41:47;28.80;34.80
810;DHT22;387;48.772;9.186;2023-07-13T13:44:15;29.00;34.10
810;DHT22;387;48.772;9.186;2023-07-13T13:46:42;28.50;34.30
810;DHT22;387;48.772;9.186;2023-07-13T13:49:18;28.20;35.10
810;DHT22;387;48.772;9.186;2023-07-13T13:51:44;28.20;35.70
810;DHT22;387;48.772;9.186;2023-07-13T13:54:15;28.80;34.80
810;DHT22;387;48.772;9.186;2023-07-13T13:56:42;28.80;33.70
810;DHT22;387;48.772;9.186;2023-07-13T13:59:08;28.00;35.60
810;DHT22;387;48.772;9.186;2023-07-13T14:01:35;26.30;38.00
810;DHT22;387;48.772;9.186;2023-07-13T14:04:01;25.80;39.20
810;DHT22;387;48.772;9.186;2023-07-13T14:06:27;26.20;38.60
810;DHT22;387;48.772;9.186;2023-07-13T14:08:53;27.10;37.40
810;DHT22;387;48.772;9.186;2023-07-13T14:11:21;27.60;36.70
810;DHT22;387;48.772;9.186;2023-07-13T14:13:52;27.90;35.60
810;DHT22;387;48.772;9.186;2023-07-13T14:16:20;26.90;37.40
810;DHT22;387;48.772;9.186;2023-07-13T14:18:47;27.40;37.20
810;DHT22;387;48.772;9.186;2023-07-13T14:21:14;26.50;38.30
810;DHT22;387;48.772;9.186;2023-07-13T14:23:41;26.80;38.40
810;DHT22;387;48.772;9.186;2023-07-13T14:26:23;27.20;37.90
810;DHT22;387;48.772;9.186;2023-07-13T14:28:52;27.10;37.80
810;DHT22;387;48.772;9.186;2023-07-13T14:31:18;26.50;38.80
810;DHT22;387;48.772;9.186;2023-07-13T14:33:44;26.30;39.20
810;DHT22;387;48.772;9.186;2023-07-13T14:38:44;27.20;36.00
810;DHT22;387;48.772;9.186;2023-07-13T14:41:10;27.60;36.40
810;DHT22;387;48.772;9.186;2023-07-13T14:43:36;27.10;37.20
810;DHT22;387;48.772;9.186;2023-07-13T14:46:01;27.50;36.40
810;DHT22;387;48.772;9.186;2023-07-13T14:48:27;28.50;35.10
810;DHT22;387;48.772;9.186;2023-07-13T14:50:57;28.90;35.50
810;DHT22;387;48.772;9.186;2023-07-13T14:53:27;29.80;33.50
810;DHT22;387;48.772;9.186;2023-07-13T14:55:56;29.40;33.10
810;DHT22;387;48.772;9.186;2023-07-13T14:58:21;29.50;34.40
810;DHT22;387;48.772;9.186;2023-07-13T15:00:47;29.80;32.90
810;DHT22;387;48.772;9.186;2023-07-13T15:03:21;30.70;30.80
810;DHT22;387;48.772;9.186;2023-07-13T15:05:48;30.00;31.90
810;DHT22;387;48.772;9.186;2023-07-13T15:08:15;29.80;32.70
810;DHT22;387;48.772;9.186;2023-07-13T15:10:41;29.50;32.70
810;DHT22;387;48.772;9.186;2023-07-13T15:13:19;28.10;35.60
810;DHT22;387;48.772;9.186;2023-07-13T15:15:52;28.00;36.60
810;DHT22;387;48.772;9.186;2023-07-13T15:18:21;27.10;37.80
810;DHT22;387;48.772;9.186;2023-07-13T15:20:48;27.00;38.40
810;DHT22;387;48.772;9.186;2023-07-13T15:23:15;28.00;36.60
810;DHT22;387;48.772;9.186;2023-07-13T15:25:42;28.10;36.80
810;DHT22;387;48.772;9.186;2023-07-13T15:28:09;28.30;35.60
810;DHT22;387;48.772;9.186;2023-07-13T15:30:47;27.60;36.70
810;DHT22;387;48.772;9.186;2023-07-13T15:33:28;27.40;37.20
810;DHT22;387;48.772;9.186;2023-07-13T15:35:55;27.60;36.80
810;DHT22;387;48.772;9.186;2023-07-13T15:38:27;27.10;37.80
810;DHT22;387;48.772;9.186;2023-07-13T15:40:54;27.20;38.00
810;DHT22;387;48.772;9.186;2023-07-13T15:43:20;27.30;37.90
810;DHT22;387;48.772;9.186;2023-07-13T15:45:47;26.80;37.80
810;DHT22;387;48.772;9.186;2023-07-13T15:48:21;26.70;38.00
810;DHT22;387;48.772;9.186;2023-07-13T15:50:52;26.70;38.70
810;DHT22;387;48.772;9.186;2023-07-13T15:53:23;27.10;37.60
810;DHT22;387;48.772;9.186;2023-07-13T15:55:50;27.60;37.10
810;DHT22;387;48.772;9.186;2023-07-13T15:58:16;27.70;36.80
810;DHT22;387;48.772;9.186;2023-07-13T16:00:42;27.40;37.00
810;DHT22;387;48.772;9.186;2023-07-13T16:03:10;27.50;37.40
810;DHT22;387;48.772;9.186;2023-07-13T16:05:36;27.40;36.80
810;DHT22;387;48.772;9.186;2023-07-13T16:08:02;27.00;37.20
810;DHT22;387;48.772;9.186;2023-07-13T16:10:35;27.00;37.90
810;DHT22;387;48.772;9.186;2023-07-13T16:13:15;27.10;38.00
810;DHT22;387;48.772;9.186;2023-07-13T16:15:41;27.30;38.20
810;DHT22;387;48.772;9.186;2023-07-13T16:18:11;27.30;37.40
810;DHT22;387;48.772;9.186;2023-07-13T16:20:38;27.40;37.90
810;DHT22;387;48.772;9.186;2023-07-13T16:23:04;27.30;37.40
810;DHT22;387;48.772;9.186;2023-07-13T16:25:30;27.10;37.10
810;DHT22;387;48.772;9.186;2023-07-13T16:27:58;26.60;38.00
810;DHT22;387;48.772;9.186;2023-07-13T16:30:28;26.40;38.40
810;DHT22;387;48.772;9.186;2023-07-13T16:32:59;26.60;38.00
810;DHT22;387;48.772;9.186;2023-07-13T16:35:32;26.50;38.30
810;DHT22;387;48.772;9.186;2023-07-13T16:38:02;26.50;38.80
810;DHT22;387;48.772;9.186;2023-07-13T16:40:31;26.70;38.70
810;DHT22;387;48.772;9.186;2023-07-13T16:42:58;26.90;38.20
810;DHT22;387;48.772;9.186;2023-07-13T16:45:29;26.80;38.60
810;DHT22;387;48.772;9.186;2023-07-13T16:48:00;27.00;37.90
810;DHT22;387;48.772;9.186;2023-07-13T16:50:33;27.10;37.80
810;DHT22;387;48.772;9.186;2023-07-13T16:52:59;26.90;38.60
810;DHT22;387;48.772;9.186;2023-07-13T16:55:26;26.80;38.80
810;DHT22;387;48.772;9.186;2023-07-13T16:57:59;27.00;37.90
810;DHT22;387;48.772;9.186;2023-07-13T17:00:31;26.60;38.70
810;DHT22;387;48.772;9.186;2023-07-13T17:03:01;26.20;40.00
810;DHT22;387;48.772;9.186;2023-07-13T17:05:44;26.50;39.90
810;DHT22;387;48.772;9.186;2023-07-13T17:08:14;26.80;39.50
810;DHT22;387;48.772;9.186;2023-07-13T17:10:41;26.50;39.40
810;DHT22;387;48.772;9.186;2023-07-13T17:13:11;26.40;39.60
810;DHT22;387;48.772;9.186;2023-07-13T17:15:38;26.10;40.20
810;DHT22;387;48.772;9.186;2023-07-13T17:18:04;25.80;40.70
810;DHT22;387;48.772;9.186;2023-07-13T17:20:34;25.60;41.40